createdAt,value
2023-02-08T00:01:26.597Z,33.50
2023-02-08T00:03:55.967Z,30.50
2023-02-08T00:06:25.740Z,21.67
2023-02-08T00:08:54.813Z,27.00
2023-02-08T00:11:24.845Z,32.75
2023-02-08T00:13:53.766Z,30.33
2023-02-08T00:16:22.975Z,23.75
2023-02-08T00:18:54.000Z,26.25
2023-02-08T00:21:23.593Z,25.50
2023-02-08T00:23:53.285Z,26.00
2023-02-08T00:26:24.706Z,38.75
2023-02-08T00:28:54.821Z,32.50
2023-02-08T00:31:23.047Z,33.25
2023-02-08T00:33:56.078Z,32.25
2023-02-08T00:36:28.555Z,43.50
2023-02-08T00:38:57.754Z,31.00
2023-02-08T00:41:29.751Z,41.25
2023-02-08T00:43:57.995Z,40.75
2023-02-08T00:46:26.962Z,28.00
2023-02-08T00:48:55.957Z,29.00
2023-02-08T00:51:25.867Z,34.00
2023-02-08T00:53:55.158Z,50.00
2023-02-08T00:56:28.089Z,50.75
2023-02-08T00:58:57.686Z,40.00
2023-02-08T01:01:25.862Z,46.25
2023-02-08T01:03:54.659Z,45.75
2023-02-08T01:06:26.077Z,41.75
2023-02-08T01:08:54.769Z,36.00
2023-02-08T01:11:28.224Z,41.25
2023-02-08T01:14:01.775Z,41.50
2023-02-08T01:16:33.357Z,44.00
2023-02-08T01:19:05.077Z,53.25
2023-02-08T01:21:36.915Z,47.50
2023-02-08T01:26:56.634Z,42.75
2023-02-08T01:29:27.767Z,36.25
2023-02-08T01:31:57.421Z,46.75
2023-02-08T01:34:28.438Z,46.00
2023-02-08T01:37:03.538Z,43.25
2023-02-08T01:39:36.713Z,46.25
2023-02-08T01:45:25.479Z,42.25
2023-02-08T01:48:23.761Z,40.25
2023-02-08T01:51:14.959Z,32.75
2023-02-08T01:53:47.095Z,37.50
2023-02-08T01:56:47.141Z,46.50
2023-02-08T01:59:26.800Z,45.00
2023-02-08T02:01:58.396Z,46.25
2023-02-08T02:04:28.286Z,50.50
2023-02-08T02:07:01.926Z,48.50
2023-02-08T02:09:59.441Z,47.50
2023-02-08T02:12:33.148Z,49.75
2023-02-08T02:15:03.578Z,51.00
2023-02-08T02:17:33.785Z,56.00
2023-02-08T02:20:27.209Z,58.50
2023-02-08T02:23:22.166Z,48.75
2023-02-08T02:26:08.353Z,47.25
2023-02-08T02:29:01.870Z,58.25
2023-02-08T02:32:04.771Z,46.25
2023-02-08T02:34:45.669Z,49.75
2023-02-08T02:38:10.365Z,50.25
2023-02-08T02:40:57.360Z,37.00
2023-02-08T02:43:46.618Z,49.50
2023-02-08T02:46:54.387Z,46.25
2023-02-08T02:49:35.377Z,44.50
2023-02-08T02:52:20.448Z,48.00
2023-02-08T02:54:53.199Z,51.00
2023-02-08T02:57:29.540Z,51.75
2023-02-08T02:59:59.240Z,44.50
2023-02-08T03:02:32.608Z,46.75
2023-02-08T03:05:06.479Z,46.50
2023-02-08T03:07:59.346Z,39.50
2023-02-08T03:10:43.367Z,48.25
2023-02-08T03:13:57.100Z,50.00
2023-02-08T03:16:40.341Z,47.50
2023-02-08T03:19:18.452Z,44.00
2023-02-08T03:21:55.404Z,43.00
2023-02-08T03:25:02.487Z,48.50
2023-02-08T03:27:56.248Z,52.00
2023-02-08T03:31:07.409Z,42.50
2023-02-08T03:33:57.537Z,49.00
2023-02-08T03:36:49.298Z,51.25
2023-02-08T03:39:23.390Z,47.25
2023-02-08T03:41:59.309Z,52.25
2023-02-08T03:44:44.584Z,49.00
2023-02-08T03:47:30.568Z,53.50
2023-02-08T03:50:05.719Z,51.00
2023-02-08T03:52:36.652Z,51.25
2023-02-08T03:55:12.248Z,51.00
2023-02-08T03:57:59.095Z,51.75
2023-02-08T04:00:34.453Z,50.00
2023-02-08T04:03:13.838Z,50.00
2023-02-08T04:05:46.891Z,53.75
2023-02-08T04:08:14.834Z,51.25
2023-02-08T04:10:47.535Z,52.50
2023-02-08T04:13:16.329Z,49.00
2023-02-08T04:15:45.326Z,44.50
2023-02-08T04:18:14.189Z,46.75
2023-02-08T04:20:43.364Z,46.75
2023-02-08T04:23:11.755Z,49.50
2023-02-08T04:25:41.020Z,49.25
2023-02-08T04:28:12.494Z,52.25
2023-02-08T04:30:42.016Z,55.50
2023-02-08T04:33:14.409Z,52.00
2023-02-08T04:35:43.768Z,52.25
2023-02-08T04:38:12.894Z,47.75
2023-02-08T04:40:42.243Z,48.25
2023-02-08T04:43:12.145Z,52.75
2023-02-08T04:45:41.149Z,49.75
2023-02-08T04:48:11.978Z,51.25
2023-02-08T04:50:41.097Z,57.00
2023-02-08T04:53:10.182Z,50.50
2023-02-08T04:55:39.089Z,51.25
2023-02-08T04:58:10.906Z,52.00
2023-02-08T05:00:40.898Z,48.50
2023-02-08T05:03:13.374Z,48.00
2023-02-08T05:05:42.605Z,53.75
2023-02-08T05:08:12.012Z,49.50
2023-02-08T05:10:46.700Z,50.75
2023-02-08T05:13:15.877Z,49.25
2023-02-08T05:15:45.815Z,51.00
2023-02-08T05:18:14.799Z,43.50
2023-02-08T05:20:43.741Z,49.25
2023-02-08T05:23:13.038Z,53.50
2023-02-08T05:25:44.907Z,38.25
2023-02-08T05:28:14.278Z,50.50
2023-02-08T05:30:43.899Z,60.50
2023-02-08T05:33:13.333Z,63.00
2023-02-08T05:35:45.878Z,50.00
2023-02-08T05:38:15.700Z,47.25
2023-02-08T05:40:45.498Z,38.75
2023-02-08T05:43:14.779Z,53.00
2023-02-08T05:45:46.846Z,50.50
2023-02-08T05:48:15.859Z,49.50
2023-02-08T05:50:46.046Z,47.25
2023-02-08T05:53:15.593Z,48.75
2023-02-08T05:55:51.692Z,43.00
2023-02-08T05:58:24.534Z,61.50
2023-02-08T06:00:54.877Z,48.25
2023-02-08T06:03:24.193Z,51.00
2023-02-08T06:05:53.881Z,45.75
2023-02-08T06:08:22.742Z,47.75
2023-02-08T06:10:54.714Z,49.75
2023-02-08T06:13:24.732Z,65.00
2023-02-08T06:15:53.750Z,50.75
2023-02-08T06:18:24.519Z,47.00
2023-02-08T06:20:56.015Z,46.00
2023-02-08T06:23:25.772Z,41.75
2023-02-08T06:25:54.742Z,50.25
2023-02-08T06:28:24.524Z,43.25
2023-02-08T06:30:56.484Z,44.00
2023-02-08T06:33:25.545Z,45.00
2023-02-08T06:36:03.014Z,33.50
2023-02-08T06:38:31.840Z,29.75
2023-02-08T06:41:02.561Z,36.75
2023-02-08T06:43:34.133Z,40.25
2023-02-08T06:46:05.994Z,36.25
2023-02-08T06:48:38.094Z,47.50
2023-02-08T06:51:08.576Z,47.25
2023-02-08T06:53:38.251Z,35.25
2023-02-08T06:56:12.864Z,33.75
2023-02-08T06:58:45.366Z,30.50
2023-02-08T07:01:19.847Z,34.75
2023-02-08T07:03:50.243Z,32.75
2023-02-08T07:06:21.874Z,39.50
2023-02-08T07:08:53.521Z,33.00
2023-02-08T07:11:25.171Z,32.00
2023-02-08T07:13:56.078Z,34.50
2023-02-08T07:16:35.449Z,36.50
2023-02-08T07:19:04.128Z,32.25
2023-02-08T07:21:34.608Z,36.25
2023-02-08T07:24:05.899Z,35.25
2023-02-08T07:26:34.891Z,28.67
2023-02-08T07:29:02.965Z,33.67
2023-02-08T07:31:32.971Z,31.00
2023-02-08T07:34:02.550Z,34.33
2023-02-08T07:36:32.715Z,37.67
2023-02-08T07:42:01.277Z,39.67
2023-02-08T07:44:30.960Z,28.67
2023-02-08T07:47:02.436Z,38.00
2023-02-08T07:49:32.563Z,25.33
2023-02-08T07:52:02.989Z,30.67
2023-02-08T07:54:35.074Z,33.33
2023-02-08T07:57:05.036Z,34.67
2023-02-08T07:59:36.206Z,37.67
2023-02-08T08:02:05.367Z,32.00
2023-02-08T08:04:35.065Z,30.67
2023-02-08T08:07:03.773Z,21.33
2023-02-08T08:09:34.160Z,32.00
2023-02-08T08:12:03.561Z,33.00
2023-02-08T08:14:32.795Z,37.33
2023-02-08T08:17:02.459Z,19.33
2023-02-08T08:19:35.405Z,25.00
2023-02-08T08:22:03.643Z,26.00
2023-02-08T08:24:35.878Z,43.33
2023-02-08T08:27:13.438Z,33.67
2023-02-08T08:29:44.594Z,22.67
2023-02-08T08:32:13.772Z,39.67
2023-02-08T08:34:43.055Z,34.33
2023-02-08T08:37:12.050Z,36.00
2023-02-08T08:39:41.151Z,33.33
2023-02-08T08:42:13.012Z,31.67
2023-02-08T08:44:41.820Z,25.00
2023-02-08T08:47:11.363Z,44.00
2023-02-08T08:49:39.911Z,27.33
2023-02-08T08:52:10.284Z,27.33
2023-02-08T08:54:39.967Z,28.33
2023-02-08T08:57:09.145Z,31.67
2023-02-08T08:59:40.697Z,29.33
2023-02-08T09:02:14.602Z,46.67
2023-02-08T09:04:48.228Z,35.33
2023-02-08T09:07:18.311Z,23.00
2023-02-08T09:09:51.024Z,42.33
2023-02-08T09:12:21.677Z,49.67
2023-02-08T09:14:49.923Z,29.33
2023-02-08T09:17:20.505Z,28.67
2023-02-08T09:19:49.838Z,35.33
2023-02-08T09:22:20.990Z,42.33
2023-02-08T09:24:55.437Z,27.67
2023-02-08T09:27:24.626Z,38.33
2023-02-08T09:29:55.981Z,29.00
2023-02-08T09:32:25.604Z,32.67
2023-02-08T09:34:57.370Z,32.67
2023-02-08T09:37:26.368Z,22.33
2023-02-08T09:39:56.326Z,30.33
2023-02-08T09:42:39.991Z,28.67
2023-02-08T09:45:58.948Z,26.33
2023-02-08T09:48:36.097Z,21.33
2023-02-08T09:51:49.041Z,31.00
2023-02-08T09:54:30.998Z,31.00
2023-02-08T09:57:04.989Z,21.25
2023-02-08T09:59:37.402Z,17.00
2023-02-08T10:02:30.243Z,23.75
2023-02-08T10:05:14.173Z,31.00
2023-02-08T10:07:44.171Z,17.75
2023-02-08T10:10:20.880Z,24.50
2023-02-08T10:13:27.610Z,25.25
2023-02-08T10:16:19.758Z,16.75
2023-02-08T10:19:17.547Z,21.25
2023-02-08T10:22:04.212Z,16.75
2023-02-08T10:25:07.741Z,28.25
2023-02-08T10:28:14.461Z,19.00
2023-02-08T10:36:28.529Z,17.00
2023-02-08T10:39:01.105Z,20.00
2023-02-08T10:41:37.826Z,22.25
2023-02-08T10:45:01.796Z,33.00
2023-02-08T10:47:48.385Z,27.75
2023-02-08T10:50:54.152Z,31.25
2023-02-08T10:53:23.791Z,28.50
2023-02-08T10:55:59.382Z,23.00
2023-02-08T12:17:42.721Z,20.00
2023-02-08T20:15:29.869Z,44.25
2023-02-08T20:17:58.854Z,37.25
2023-02-08T20:20:27.896Z,39.50
2023-02-08T20:23:00.547Z,42.25
2023-02-08T20:25:35.868Z,37.75
2023-02-08T20:28:13.354Z,31.33
2023-02-08T20:30:43.013Z,31.67
2023-02-08T20:33:25.912Z,37.50
2023-02-08T20:35:58.141Z,42.25
2023-02-08T20:38:40.222Z,46.50
2023-02-08T20:41:14.972Z,25.50
2023-02-08T20:43:45.872Z,28.25
2023-02-08T20:46:23.401Z,31.75
2023-02-08T20:48:53.631Z,37.00
2023-02-08T20:51:23.556Z,40.50
2023-02-08T20:53:59.235Z,28.50
2023-02-08T20:56:41.531Z,32.75
2023-02-08T20:59:16.209Z,43.75
2023-02-08T21:01:48.278Z,38.00
2023-02-08T21:04:24.160Z,46.75
2023-02-08T21:06:58.449Z,32.75
2023-02-08T21:09:29.856Z,38.00
2023-02-08T21:14:44.889Z,44.00
2023-02-08T21:17:19.041Z,34.50
2023-02-08T21:19:51.916Z,37.25
2023-02-08T21:22:26.013Z,33.00
2023-02-08T21:24:55.288Z,29.50
2023-02-08T21:27:25.414Z,50.75
2023-02-08T21:29:54.569Z,69.50
2023-02-08T21:32:25.670Z,58.00
2023-02-08T21:34:57.779Z,77.25
2023-02-08T21:37:26.517Z,86.50
2023-02-08T22:57:15.603Z,50.75
2023-02-08T23:03:29.968Z,48.50
2023-02-08T23:40:41.436Z,55.75
2023-02-08T23:43:29.067Z,44.25
2023-02-08T23:57:40.621Z,66.50
